Time;durP1;ratioP1;P1;durP2;ratioP2;P2;SDS_P1;SDS_P2;PMS_P1;PMS_P2;Temp;Humidity;BMP_temperature;BMP_pressure;BME280_temperature;BME280_humidity;BME280_pressure;Samples;Min_cycle;Max_cycle;Signal;HPM_P1;HPM_P2
2023/05/18 01:39:54;;;;;;;4.63;1.52;;;14.60;78.60;;;;;;4913439;29;20056;-65
2023/05/18 01:42:23;;;;;;;4.15;1.40;;;14.70;77.00;;;;;;4914586;29;20115;-66
2023/05/18 01:44:52;;;;;;;3.45;1.05;;;14.70;76.30;;;;;;4898902;29;20034;-67
2023/05/18 01:47:20;;;;;;;3.15;1.13;;;14.70;76.30;;;;;;4913894;29;20135;-65
2023/05/18 01:49:59;;;;;;;8.98;1.77;;;14.70;75.90;;;;;;4915132;29;20032;-66
2023/05/18 01:52:57;;;;;;;3.25;1.40;;;14.80;76.70;;;;;;4915759;29;20418;-66
2023/05/18 01:55:25;;;;;;;3.42;1.05;;;14.90;76.70;;;;;;4913624;29;20028;-65
2023/05/18 01:57:52;;;;;;;5.05;1.30;;;15.00;76.60;;;;;;4898194;29;20418;-65
2023/05/18 02:00:20;;;;;;;2.80;1.17;;;14.80;76.70;;;;;;4893325;29;20044;-64
2023/05/18 02:02:47;;;;;;;5.20;1.15;;;14.80;76.50;;;;;;4907336;29;20032;-64
2023/05/18 02:05:15;;;;;;;4.47;1.35;;;14.80;77.00;;;;;;4914805;29;20036;-65
2023/05/18 02:07:46;;;;;;;6.82;1.48;;;14.80;75.70;;;;;;4914004;29;20044;-65
2023/05/18 02:10:13;;;;;;;4.00;1.20;;;14.80;76.50;;;;;;4916758;29;20127;-66
2023/05/18 02:12:41;;;;;;;9.98;1.55;;;14.80;75.50;;;;;;4916955;29;20054;-66
2023/05/18 02:15:09;;;;;;;4.97;1.30;;;14.80;75.10;;;;;;4919650;29;20028;-66
2023/05/18 02:17:36;;;;;;;3.97;1.00;;;14.80;75.40;;;;;;4919710;29;20047;-66
2023/05/18 02:20:08;;;;;;;4.80;1.70;;;14.90;75.30;;;;;;4920876;29;20028;-66
2023/05/18 02:22:36;;;;;;;7.60;1.48;;;14.90;75.10;;;;;;4923789;29;20036;-66
2023/05/18 02:25:04;;;;;;;9.10;1.50;;;15.00;75.30;;;;;;4921448;29;20055;-65
2023/05/18 02:27:33;;;;;;;14.70;1.50;;;15.00;74.80;;;;;;4920143;29;20048;-66
2023/05/18 02:30:03;;;;;;;13.38;1.50;;;15.10;74.90;;;;;;4920862;29;20439;-66
2023/05/18 02:32:37;;;;;;;3.30;1.13;;;15.20;75.50;;;;;;4921691;29;20114;-66
2023/05/18 02:35:07;;;;;;;8.02;1.58;;;15.20;74.40;;;;;;4919636;29;20029;-66
2023/05/18 02:37:38;;;;;;;;;;;15.20;76.40;;;;;;4921521;29;20398;-66
2023/05/18 02:40:06;;;;;;;;;;;15.10;75.30;;;;;;4962914;28;20017;-65
2023/05/18 02:42:34;;;;;;;3.50;1.00;;;15.10;75.50;;;;;;4956585;28;19915;-66
2023/05/18 02:45:01;;;;;;;1.95;0.80;;;15.10;74.20;;;;;;4964123;28;20133;-65
2023/05/18 02:47:28;;;;;;;6.55;1.70;;;15.10;73.80;;;;;;4959375;28;20051;-65
2023/05/18 02:49:56;;;;;;;5.47;1.30;;;15.00;74.50;;;;;;4958458;28;20031;-66
2023/05/18 02:52:23;;;;;;;3.47;0.93;;;15.00;74.70;;;;;;4960117;28;20027;-65
2023/05/18 02:54:53;;;;;;;6.70;1.15;;;15.00;74.10;;;;;;4960369;28;20038;-65
2023/05/18 02:57:21;;;;;;;8.80;1.10;;;15.10;73.10;;;;;;4960140;28;20106;-66
2023/05/18 02:59:48;;;;;;;7.20;1.25;;;15.20;74.20;;;;;;4943127;29;20027;-65
2023/05/18 03:02:16;;;;;;;3.28;1.40;;;15.10;72.40;;;;;;4960143;29;20046;-66
2023/05/18 03:04:46;;;;;;;3.78;1.40;;;15.10;70.70;;;;;;4942934;29;20057;-65
2023/05/18 03:07:13;;;;;;;8.57;1.27;;;15.10;71.30;;;;;;4959854;28;20047;-65
2023/05/18 03:09:40;;;;;;;5.35;1.58;;;15.10;71.80;;;;;;4960254;29;20031;-65
2023/05/18 03:12:08;;;;;;;6.18;1.25;;;15.10;73.60;;;;;;4960163;28;20035;-65
2023/05/18 03:14:36;;;;;;;8.48;1.27;;;15.10;72.70;;;;;;4960334;29;20035;-65
2023/05/18 03:17:04;;;;;;;6.88;1.25;;;15.10;74.20;;;;;;4960088;28;20601;-66
2023/05/18 03:19:33;;;;;;;7.07;1.52;;;15.10;74.40;;;;;;4960085;29;20046;-65
2023/05/18 03:22:02;;;;;;;4.03;1.20;;;15.10;73.70;;;;;;4957018;28;20083;-65
2023/05/18 03:24:39;;;;;;;7.05;1.45;;;15.20;74.90;;;;;;4940224;29;20043;-66
2023/05/18 03:27:07;;;;;;;2.72;1.15;;;15.20;74.40;;;;;;4956660;28;20047;-65
2023/05/18 03:29:34;;;;;;;5.05;1.30;;;15.20;74.10;;;;;;4956721;29;20075;-65
2023/05/18 03:32:02;;;;;;;5.53;1.38;;;15.20;75.20;;;;;;4956969;29;20035;-66
2023/05/18 14:49:56;;;;;;;4.85;1.40;;;12.40;76.70;;;;;;4941437;28;19925;-64
2023/05/18 14:52:23;;;;;;;2.47;1.40;;;12.30;77.70;;;;;;4966437;28;21208;-64
2023/05/18 14:54:51;;;;;;;4.47;1.30;;;12.20;78.50;;;;;;4956497;28;20050;-64
2023/05/18 14:57:18;;;;;;;1.98;1.20;;;12.20;78.80;;;;;;4953769;28;20036;-65
2023/05/18 14:59:45;;;;;;;1.60;1.05;;;12.20;79.00;;;;;;4958900;28;20130;-65
2023/05/18 15:02:13;;;;;;;1.73;1.25;;;12.20;79.00;;;;;;4953777;28;20039;-64
2023/05/18 15:04:40;;;;;;;2.55;1.10;;;12.20;78.80;;;;;;4953947;29;20486;-64
2023/05/18 15:07:08;;;;;;;3.83;1.35;;;12.20;78.60;;;;;;4952714;28;20039;-64
2023/05/18 15:09:35;;;;;;;3.97;1.27;;;12.20;78.00;;;;;;4937102;28;20462;-65
2023/05/18 15:12:03;;;;;;;2.88;1.30;;;12.20;77.90;;;;;;4954805;28;20027;-65
2023/05/18 15:14:30;;;;;;;4.13;1.20;;;12.30;77.70;;;;;;4953067;28;20398;-66
2023/05/18 15:16:57;;;;;;;2.08;1.10;;;12.30;77.50;;;;;;4953660;28;20090;-65
2023/05/18 15:19:25;;;;;;;1.98;1.20;;;12.30;77.50;;;;;;4956774;28;20393;-65
2023/05/18 15:21:53;;;;;;;3.38;1.25;;;12.30;77.40;;;;;;4959908;28;20106;-65
2023/05/18 15:24:20;;;;;;;2.17;1.10;;;12.30;77.40;;;;;;4958726;28;20095;-65
2023/05/18 15:26:47;;;;;;;4.32;1.17;;;12.30;77.50;;;;;;4955105;28;20090;-65
2023/05/18 15:29:15;;;;;;;3.97;1.50;;;12.20;77.30;;;;;;4956512;28;20568;-65
2023/05/18 15:31:42;;;;;;;3.17;1.38;;;12.20;77.30;;;;;;4955771;28;20035;-65
2023/05/18 15:34:10;;;;;;;3.70;1.42;;;12.20;77.70;;;;;;4960105;28;20036;-65
2023/05/18 15:36:37;;;;;;;3.47;1.52;;;12.20;77.60;;;;;;4967015;28;20509;-65
2023/05/18 15:39:05;;;;;;;4.45;1.63;;;12.20;77.60;;;;;;4971085;28;20075;-65
2023/05/18 15:41:35;;;;;;;3.70;1.70;;;12.20;77.00;;;;;;4956176;29;20039;-65
2023/05/18 15:44:03;;;;;;;5.22;1.58;;;12.20;76.90;;;;;;4956062;28;20489;-65
2023/05/18 15:46:33;;;;;;;2.58;1.48;;;12.20;76.70;;;;;;4956395;29;20466;-65
2023/05/18 15:49:01;;;;;;;4.15;1.45;;;12.20;76.90;;;;;;4968526;28;20541;-65
2023/05/18 15:51:28;;;;;;;3.38;1.38;;;12.10;76.70;;;;;;4975609;28;20031;-65
2023/05/18 15:53:55;;;;;;;5.18;1.67;;;12.20;76.80;;;;;;4969085;28;20043;-65
2023/05/18 15:56:23;;;;;;;4.70;1.55;;;12.20;76.50;;;;;;4956576;29;20126;-65
2023/05/18 15:58:50;;;;;;;4.60;1.95;;;12.10;76.40;;;;;;4955860;28;20031;-65
2023/05/18 16:01:18;;;;;;;2.20;1.40;;;12.10;76.20;;;;;;4975408;28;20037;-64
2023/05/18 16:03:45;;;;;;;2.88;1.60;;;12.10;76.30;;;;;;4966000;28;20406;-64
2023/05/18 16:06:13;;;;;;;2.63;1.77;;;12.10;76.20;;;;;;4956430;28;20098;-64
2023/05/18 16:08:40;;;;;;;2.90;1.60;;;12.10;76.30;;;;;;4922157;28;20449;-65
2023/05/18 16:11:08;;;;;;;4.20;1.70;;;12.10;76.00;;;;;;4974628;28;20074;-64
2023/05/18 16:13:38;;;;;;;6.28;2.20;;;12.10;76.40;;;;;;4959204;28;20047;-64
2023/05/18 16:16:09;;;;;;;2.80;1.70;;;12.10;76.10;;;;;;4968393;28;20035;-65
2023/05/18 16:18:36;;;;;;;3.85;1.92;;;12.20;76.40;;;;;;4963797;28;20031;-65
2023/05/18 16:21:04;;;;;;;2.95;1.77;;;12.20;76.40;;;;;;4942869;28;20032;-65
2023/05/18 16:23:31;;;;;;;4.18;1.70;;;12.10;76.30;;;;;;4955842;29;20041;-65
2023/05/18 16:26:00;;;;;;;2.17;1.60;;;12.10;76.10;;;;;;4955330;28;20081;-64
2023/05/18 16:28:27;;;;;;;2.17;1.60;;;12.20;76.00;;;;;;4938627;28;20498;-64
2023/05/18 16:30:55;;;;;;;2.42;1.65;;;12.20;75.80;;;;;;4959289;28;20059;-65
2023/05/18 16:33:22;;;;;;;7.28;1.90;;;12.20;75.70;;;;;;4955488;28;20039;-65
2023/05/18 16:35:50;;;;;;;3.22;1.63;;;12.20;75.70;;;;;;4965910;28;20030;-65
2023/05/18 16:38:17;;;;;;;2.90;1.70;;;12.20;75.10;;;;;;4951525;28;20580;-65
2023/05/18 16:40:45;;;;;;;4.55;1.55;;;12.20;75.00;;;;;;4972834;28;20045;-64
2023/05/18 16:43:12;;;;;;;3.15;1.50;;;12.20;74.80;;;;;;4940501;28;20049;-65
2023/05/18 16:45:41;;;;;;;4.05;1.45;;;12.20;75.00;;;;;;4954948;28;20466;-65
2023/05/18 16:48:08;;;;;;;2.90;1.50;;;12.20;74.70;;;;;;4937000;28;20047;-64
2023/05/18 16:50:36;;;;;;;3.58;1.63;;;12.20;74.80;;;;;;4969086;28;20138;-65
2023/05/18 16:53:04;;;;;;;3.58;1.42;;;12.20;74.80;;;;;;4957846;28;20087;-65
2023/05/18 16:55:31;;;;;;;3.88;1.40;;;12.20;74.80;;;;;;4939922;29;20035;-65
2023/05/18 16:57:59;;;;;;;4.70;1.80;;;12.20;74.80;;;;;;4955399;28;20090;-64
2023/05/18 17:00:26;;;;;;;2.90;1.30;;;12.30;74.60;;;;;;4954261;28;20035;-64
2023/05/18 17:02:54;;;;;;;4.63;1.60;;;12.30;74.50;;;;;;4953441;28;20122;-64
2023/05/18 17:05:25;;;;;;;4.78;1.42;;;12.30;74.50;;;;;;4954961;29;20134;-65
2023/05/18 17:07:52;;;;;;;3.40;1.67;;;12.30;73.80;;;;;;4955003;28;20530;-64
2023/05/18 17:10:20;;;;;;;4.68;1.65;;;12.30;73.60;;;;;;4954842;28;20035;-65
2023/05/18 17:12:47;;;;;;;3.53;1.60;;;12.40;73.40;;;;;;4937122;28;20126;-65
2023/05/18 17:15:15;;;;;;;2.50;1.30;;;12.30;73.50;;;;;;4955052;29;20042;-65
2023/05/18 17:17:42;;;;;;;2.25;1.55;;;12.30;73.30;;;;;;4954222;28;20078;-65
2023/05/18 17:20:10;;;;;;;1.50;1.20;;;12.30;73.40;;;;;;4965369;28;20530;-65
2023/05/18 17:22:38;;;;;;;3.92;1.60;;;12.30;73.50;;;;;;4954030;28;20512;-65
2023/05/18 17:25:06;;;;;;;4.60;1.50;;;12.30;73.30;;;;;;4953461;29;20114;-65
2023/05/18 17:27:33;;;;;;;2.55;1.42;;;12.30;73.10;;;;;;4954553;28;20366;-65
2023/05/18 17:30:01;;;;;;;3.90;1.60;;;12.30;73.10;;;;;;4965007;28;20455;-64
2023/05/18 17:32:28;;;;;;;2.50;1.50;;;12.20;73.40;;;;;;4968827;28;20504;-65
2023/05/18 17:34:56;;;;;;;2.97;1.40;;;12.20;73.40;;;;;;4955073;28;20035;-65
2023/05/18 17:37:23;;;;;;;5.60;1.30;;;12.20;74.00;;;;;;4936953;28;20117;-65
2023/05/18 17:39:50;;;;;;;2.85;1.23;;;12.20;74.10;;;;;;4963382;28;20114;-64
2023/05/18 17:42:18;;;;;;;3.25;1.40;;;12.20;73.90;;;;;;4973036;28;20045;-65
2023/05/18 17:44:45;;;;;;;2.35;1.40;;;12.10;74.30;;;;;;4955809;28;20478;-65
2023/05/18 17:47:12;;;;;;;2.20;1.20;;;12.10;75.00;;;;;;4954447;28;20036;-64
2023/05/18 17:49:40;;;;;;;2.65;1.40;;;12.00;75.10;;;;;;4944647;28;20050;-64
2023/05/18 17:52:07;;;;;;;4.93;1.30;;;12.00;75.20;;;;;;4958703;28;20105;-63
2023/05/18 17:54:35;;;;;;;3.30;1.42;;;11.90;75.00;;;;;;4957648;28;20030;-65
2023/05/18 17:57:02;;;;;;;2.17;1.38;;;11.90;74.70;;;;;;4965266;28;20090;-64
2023/05/18 17:59:30;;;;;;;2.40;1.27;;;11.80;75.10;;;;;;4953639;28;20111;-65
2023/05/18 18:01:57;;;;;;;4.75;1.65;;;11.70;75.20;;;;;;4953964;29;20039;-65
2023/05/18 18:04:24;;;;;;;5.03;1.73;;;11.70;75.40;;;;;;4958212;28;20034;-65
2023/05/18 18:33:50;;;;;;;3.30;1.50;;;11.40;76.70;;;;;;4932237;29;20096;-65
2023/05/18 18:36:17;;;;;;;4.50;1.60;;;11.30;76.80;;;;;;4933992;29;20119;-64
2023/05/18 18:38:45;;;;;;;2.17;1.50;;;11.30;76.90;;;;;;4934210;29;20046;-65
2023/05/18 18:41:15;;;;;;;2.38;1.50;;;11.30;77.00;;;;;;4934755;29;20028;-65
2023/05/18 18:43:46;;;;;;;2.80;1.40;;;11.30;76.70;;;;;;4932295;29;20043;-65
2023/05/18 18:46:13;;;;;;;3.38;1.83;;;11.30;77.10;;;;;;4944321;29;20560;-67
2023/05/18 18:48:40;;;;;;;2.70;1.65;;;11.20;76.30;;;;;;4915423;29;20465;-67
2023/05/18 18:51:08;;;;;;;6.78;1.48;;;11.20;77.00;;;;;;4932832;29;20024;-67
2023/05/18 18:53:35;;;;;;;3.03;1.75;;;11.20;76.50;;;;;;4937141;29;20028;-66
2023/05/18 18:56:02;;;;;;;4.45;1.88;;;11.20;76.80;;;;;;4934621;29;20035;-67
2023/05/18 18:58:30;;;;;;;2.83;1.77;;;11.20;76.90;;;;;;4936618;29;20058;-65
2023/05/18 19:00:57;;;;;;;2.70;1.75;;;11.10;76.60;;;;;;4926824;29;20023;-66
2023/05/18 19:03:25;;;;;;;3.65;1.50;;;11.10;76.40;;;;;;4935213;29;21027;-66
2023/05/18 19:05:52;;;;;;;2.65;1.42;;;11.10;76.50;;;;;;4936503;29;20046;-66
2023/05/18 19:08:20;;;;;;;3.90;1.83;;;11.10;76.40;;;;;;4937218;29;20528;-66
2023/05/18 19:10:47;;;;;;;4.05;2.03;;;11.10;76.70;;;;;;4937716;29;20067;-66
2023/05/18 19:13:15;;;;;;;3.17;1.70;;;11.10;77.40;;;;;;4935939;29;20046;-67
2023/05/18 19:15:42;;;;;;;3.72;1.77;;;11.10;77.50;;;;;;4937264;29;20390;-67
2023/05/18 19:18:09;;;;;;;4.38;1.92;;;11.10;77.40;;;;;;4920908;29;20055;-67
2023/05/18 19:20:37;;;;;;;3.90;1.90;;;11.10;77.20;;;;;;4938407;29;20035;-66
2023/05/18 19:23:04;;;;;;;2.22;1.60;;;11.00;78.00;;;;;;4937120;29;20376;-66
2023/05/18 19:25:32;;;;;;;4.22;1.58;;;10.90;77.70;;;;;;4934788;29;20032;-67
2023/05/18 19:27:59;;;;;;;5.38;1.67;;;10.90;78.00;;;;;;4919448;29;20044;-67
2023/05/18 19:30:27;;;;;;;2.50;1.73;;;10.90;77.70;;;;;;4936940;29;20027;-66
